Time;durP1;ratioP1;P1;durP2;ratioP2;P2;SDS_P1;SDS_P2;PMS_P1;PMS_P2;Temp;Humidity;BMP_temperature;BMP_pressure;BME280_temperature;BME280_humidity;BME280_pressure;Samples;Min_cycle;Max_cycle;Signal;HPM_P1;HPM_P2
2022/06/08 00:00:06;;;;;;;;;;;;;;;22.24;67.58;99626.53;2036416;28;20276;-48
2022/06/08 00:01:06;;;;;;;;;;;;;;;22.24;67.40;99623.75;2037845;28;19911;-48
2022/06/08 00:02:07;;;;;;;;;;;;;;;22.24;68.05;99627.28;2036205;28;19907;-47
2022/06/08 00:03:11;;;;;;;;;;;;;;;22.24;67.48;99629.28;2035151;28;19938;-50
2022/06/08 00:04:13;;;;;;;;;;;;;;;22.23;67.13;99623.00;2034677;28;21203;-49
2022/06/08 00:05:13;;;;;;;;;;;;;;;22.24;67.22;99626.53;2038707;28;19914;-48
2022/06/08 00:06:14;;;;;;;;;;;;;;;22.24;67.57;99619.03;2035741;28;20460;-50
2022/06/08 00:07:15;;;;;;;;;;;;;;;22.23;67.47;99617.47;2029435;29;19922;-47
2022/06/08 00:08:15;;;;;;;;;;;;;;;22.24;67.71;99613.50;2029192;28;19911;-47
2022/06/08 00:09:15;;;;;;;;;;;;;;;22.24;67.81;99612.72;2029472;29;19914;-47
2022/06/08 00:10:16;;;;;;;;;;;;;;;22.23;68.37;99611.19;2044256;28;19914;-49
2022/06/08 00:11:16;;;;;;;;;;;;;;;22.22;68.34;99609.63;2040777;28;19910;-48
2022/06/08 00:12:17;;;;;;;;;;;;;;;22.23;67.94;99605.66;2030472;29;19911;-50
2022/06/08 00:13:17;;;;;;;;;;;;;;;22.24;67.75;99604.47;2030274;28;19918;-48
2022/06/08 00:14:17;;;;;;;;;;;;;;;22.23;67.77;99605.66;2030768;28;19974;-49
2022/06/08 00:15:18;;;;;;;;;;;;;;;22.22;67.99;99601.38;2045408;29;20327;-48
2022/06/08 00:16:18;;;;;;;;;;;;;;;22.22;67.45;99604.13;2024763;29;20585;-48
2022/06/08 00:17:18;;;;;;;;;;;;;;;22.22;67.40;99598.59;2029466;29;19906;-49
2022/06/08 00:18:19;;;;;;;;;;;;;;;22.21;67.39;99597.84;2029280;29;20623;-48
2022/06/08 00:19:19;;;;;;;;;;;;;;;22.22;67.38;99590.31;2032246;28;20532;-47
2022/06/08 00:20:19;;;;;;;;;;;;;;;22.21;67.84;99589.56;2032197;29;20384;-47
2022/06/08 00:21:20;;;;;;;;;;;;;;;22.21;67.97;99594.31;2032569;28;19931;-48
2022/06/08 00:22:20;;;;;;;;;;;;;;;22.20;68.55;99590.78;2029875;28;20353;-48
2022/06/08 00:23:21;;;;;;;;;;;;;;;22.22;68.41;99590.31;2029047;28;20200;-50
2022/06/08 00:24:21;;;;;;;;;;;;;;;22.21;68.29;99588.78;2031745;28;20281;-46
2022/06/08 00:25:22;;;;;;;;;;;;;;;22.20;68.31;99590.78;2039028;28;20021;-49
2022/06/08 00:26:24;;;;;;;;;;;;;;;22.20;68.58;99590.03;2037585;28;19961;-49
2022/06/08 00:27:25;;;;;;;;;;;;;;;22.21;68.71;99591.53;2036902;28;19941;-47
2022/06/08 00:28:25;;;;;;;;;;;;;;;22.21;68.53;99588.78;2024856;29;20443;-48
2022/06/08 00:29:26;;;;;;;;;;;;;;;22.20;68.12;99590.78;2037691;29;20771;-48
2022/06/08 00:30:26;;;;;;;;;;;;;;;22.19;68.02;99596.75;2039763;28;20323;-48
2022/06/08 00:31:27;;;;;;;;;;;;;;;22.20;68.29;99585.28;2032043;28;20183;-50
2022/06/08 00:32:27;;;;;;;;;;;;;;;22.20;68.09;99581.75;2032063;28;20559;-50
2022/06/08 00:33:27;;;;;;;;;;;;;;;22.19;68.41;99582.97;2036480;28;20372;-51
2022/06/08 00:34:28;;;;;;;;;;;;;;;22.18;68.49;99582.19;2035233;28;19961;-48
2022/06/08 00:35:28;;;;;;;;;;;;;;;22.19;68.80;99582.97;2031170;28;19954;-47
2022/06/08 00:36:28;;;;;;;;;;;;;;;22.20;68.81;99581.75;2036559;28;19910;-49
2022/06/08 00:37:29;;;;;;;;;;;;;;;22.18;69.19;99586.94;2042613;28;20271;-48
2022/06/08 00:38:29;;;;;;;;;;;;;;;22.18;68.74;99586.94;2036985;28;19914;-48
2022/06/08 00:39:29;;;;;;;;;;;;;;;22.18;68.15;99598.72;2037365;28;20204;-48
2022/06/08 00:40:40;;;;;;;;;;;;;;;22.16;67.19;99589.34;2027947;28;19926;-50
2022/06/08 00:41:50;;;;;;;;;;;;;;;22.16;67.39;99594.88;2028814;28;19930;-48
2022/06/08 00:42:50;;;;;;;;;;;;;;;22.17;67.33;99582.63;2034596;29;19910;-47
2022/06/08 00:43:52;;;;;;;;;;;;;;;22.16;67.38;99586.59;2030019;29;19910;-51
2022/06/08 00:44:54;;;;;;;;;;;;;;;22.17;67.28;99580.63;2033783;29;20020;-47
2022/06/08 00:45:55;;;;;;;;;;;;;;;22.17;67.08;99590.91;2044712;28;19914;-50
2022/06/08 00:46:56;;;;;;;;;;;;;;;22.15;66.82;99585.06;2034373;28;19953;-50
2022/06/08 00:48:00;;;;;;;;;;;;;;;22.14;67.28;99578.00;2036692;28;20013;-47
2022/06/08 00:49:05;;;;;;;;;;;;;;;22.14;66.93;99586.28;2038003;28;20605;-48
2022/06/08 00:50:09;;;;;;;;;;;;;;;22.13;67.65;99573.72;2031003;28;20005;-49
2022/06/08 00:51:09;;;;;;;;;;;;;;;22.14;67.82;99570.50;2033461;29;19945;-49
2022/06/08 00:52:11;;;;;;;;;;;;;;;22.14;68.17;99566.97;2032711;28;19930;-51
2022/06/08 00:53:13;;;;;;;;;;;;;;;22.12;68.39;99561.91;2035633;28;19914;-48
2022/06/08 00:54:17;;;;;;;;;;;;;;;22.14;68.60;99564.22;2034933;29;19949;-50
2022/06/08 00:55:19;;;;;;;;;;;;;;;22.14;68.97;99558.69;2032201;28;20233;-49
2022/06/08 00:56:22;;;;;;;;;;;;;;;22.13;68.87;99551.63;2041543;28;19918;-50
2022/06/08 00:57:25;;;;;;;;;;;;;;;22.13;68.87;99548.88;2026882;29;19914;-50
2022/06/08 00:58:28;;;;;;;;;;;;;;;22.12;68.69;99539.06;2022015;29;19970;-46
2022/06/08 00:59:28;;;;;;;;;;;;;;;22.12;68.43;99541.81;2028576;28;20001;-47
2022/06/08 01:00:33;;;;;;;;;;;;;;;22.12;68.45;99541.81;2032741;29;19915;-49
2022/06/08 01:01:34;;;;;;;;;;;;;;;22.12;68.59;99544.56;2031021;29;20743;-50
2022/06/08 01:02:34;;;;;;;;;;;;;;;22.12;68.80;99533.53;2036552;28;19921;-48
2022/06/08 01:03:34;;;;;;;;;;;;;;;22.13;68.49;99543.38;2046483;28;20004;-48
2022/06/08 01:04:35;;;;;;;;;;;;;;;22.13;68.67;99540.59;2035798;28;19921;-49
2022/06/08 01:05:40;;;;;;;;;;;;;;;22.11;67.99;99537.50;2034490;28;19925;-50
2022/06/08 01:06:42;;;;;;;;;;;;;;;22.10;67.86;99545.03;2038052;28;19921;-48
2022/06/08 01:07:42;;;;;;;;;;;;;;;22.12;68.17;99544.56;2035093;28;19961;-47
2022/06/08 01:08:47;;;;;;;;;;;;;;;22.10;67.96;99542.25;2035281;28;19919;-49
2022/06/08 01:09:48;;;;;;;;;;;;;;;22.10;67.48;99541.50;2038999;28;20040;-49
2022/06/08 01:10:52;;;;;;;;;;;;;;;22.08;66.96;99539.19;2034812;28;19918;-48
2022/06/08 01:11:55;;;;;;;;;;;;;;;22.08;66.82;99541.19;2033599;28;20614;-47
2022/06/08 01:13:01;;;;;;;;;;;;;;;22.09;67.25;99539.97;2035620;28;19925;-47
2022/06/08 01:14:03;;;;;;;;;;;;;;;22.09;67.57;99551.78;2039803;28;19957;-48
2022/06/08 01:15:04;;;;;;;;;;;;;;;22.09;67.66;99539.97;2035851;28;19940;-47
2022/06/08 01:16:06;;;;;;;;;;;;;;;22.08;67.54;99539.19;2037475;28;19980;-47
2022/06/08 01:17:08;;;;;;;;;;;;;;;22.07;67.41;99532.13;2029836;29;20014;-51
2022/06/08 01:18:09;;;;;;;;;;;;;;;22.08;67.23;99544.72;2034875;28;20013;-48
2022/06/08 01:19:10;;;;;;;;;;;;;;;22.07;67.45;99540.41;2037441;28;19938;-47
2022/06/08 01:20:11;;;;;;;;;;;;;;;22.09;67.46;99542.72;2036298;28;20004;-48
2022/06/08 01:21:20;;;;;;;;;;;;;;;22.09;67.43;99539.97;2035005;28;19902;-48
2022/06/08 01:22:21;;;;;;;;;;;;;;;22.07;67.41;99537.66;2037307;28;20017;-50
2022/06/08 01:23:22;;;;;;;;;;;;;;;22.05;66.92;99531.78;2037159;28;20248;-50
2022/06/08 01:24:23;;;;;;;;;;;;;;;22.06;67.25;99522.31;2037589;28;19970;-48
2022/06/08 01:25:24;;;;;;;;;;;;;;;22.06;66.60;99522.31;2035873;28;19966;-48
2022/06/08 01:26:29;;;;;;;;;;;;;;;22.05;66.82;99522.78;2036861;28;19902;-48
2022/06/08 01:27:29;;;;;;;;;;;;;;;22.03;66.11;99525.97;2028782;29;20555;-48
2022/06/08 01:28:35;;;;;;;;;;;;;;;22.04;66.03;99529.50;2037754;28;19910;-47
2022/06/08 01:29:36;;;;;;;;;;;;;;;22.03;66.28;99523.22;2030520;28;19993;-51
2022/06/08 01:30:45;;;;;;;;;;;;;;;22.02;66.36;99524.44;2021759;29;19911;-48
2022/06/08 01:32:04;;;;;;;;;;;;;;;22.03;66.33;99511.41;2026864;29;19986;-47
2022/06/08 01:33:07;;;;;;;;;;;;;;;22.03;66.64;99516.94;2032486;29;19914;-49
2022/06/08 01:34:18;;;;;;;;;;;;;;;22.03;66.71;99512.19;2030469;28;19914;-47
2022/06/08 01:35:30;;;;;;;;;;;;;;;22.02;66.82;99507.13;2038130;28;19914;-48
2022/06/08 01:36:41;;;;;;;;;;;;;;;22.03;66.54;99511.41;2032271;28;19919;-49
2022/06/08 01:38:00;;;;;;;;;;;;;;;22.02;66.28;99505.13;2035102;28;19907;-50
2022/06/08 01:39:20;;;;;;;;;;;;;;;22.02;66.31;99501.59;2031317;28;20208;-48
2022/06/08 01:40:27;;;;;;;;;;;;;;;22.01;66.70;99505.56;2042253;28;19945;-47
2022/06/08 01:41:41;;;;;;;;;;;;;;;22.02;66.84;99504.34;2028139;29;19927;-47
2022/06/08 01:43:07;;;;;;;;;;;;;;;22.01;66.28;99500.81;2037523;28;19918;-48
2022/06/08 01:44:07;;;;;;;;;;;;;;;22.01;66.61;99497.28;2046341;28;19962;-50
2022/06/08 01:47:04;;;;;;;;;;;;;;;21.99;66.32;99497.00;2001649;29;19952;-47
2022/06/08 01:48:04;;;;;;;;;;;;;;;22.00;66.59;99493.75;2040782;28;19914;-48
2022/06/08 01:49:28;;;;;;;;;;;;;;;21.98;66.77;99496.22;2035080;28;19962;-50
2022/06/08 01:50:31;;;;;;;;;;;;;;;22.01;66.66;99494.53;2033934;28;19913;-47
2022/06/08 01:51:43;;;;;;;;;;;;;;;21.98;66.52;99487.94;2039901;28;19914;-47
2022/06/08 01:52:55;;;;;;;;;;;;;;;21.98;66.49;99484.41;2036872;28;19914;-49
2022/06/08 01:54:13;;;;;;;;;;;;;;;21.97;66.19;99483.63;2031258;29;19917;-49
2022/06/08 01:55:22;;;;;;;;;;;;;;;21.97;65.95;99485.63;2037986;28;19914;-47
2022/06/08 01:56:34;;;;;;;;;;;;;;;21.97;66.40;99483.63;2042394;28;19914;-50
2022/06/08 01:57:46;;;;;;;;;;;;;;;21.96;66.00;99492.34;2033853;28;20013;-47
2022/06/08 01:59:05;;;;;;;;;;;;;;;21.96;66.10;99484.09;2031213;28;20453;-47
2022/06/08 02:00:11;;;;;;;;;;;;;;;21.96;66.25;99486.84;2028806;28;20110;-50
2022/06/08 02:01:31;;;;;;;;;;;;;;;21.96;66.71;99484.84;2029844;28;19910;-47
2022/06/08 02:02:32;;;;;;;;;;;;;;;21.96;66.39;99476.59;2031601;29;19946;-47
2022/06/08 02:03:36;;;;;;;;;;;;;;;21.96;65.95;99475.81;2029150;29;19925;-48
2022/06/08 02:04:37;;;;;;;;;;;;;;;21.94;65.98;99472.72;2031560;28;19941;-48
2022/06/08 02:05:55;;;;;;;;;;;;;;;21.94;65.93;99469.97;2029917;29;19950;-47
2022/06/08 02:06:58;;;;;;;;;;;;;;;21.94;66.11;99467.19;2026902;29;20361;-48
2022/06/08 02:08:09;;;;;;;;;;;;;;;21.92;65.84;99470.41;2032940;28;20343;-48
2022/06/08 02:09:16;;;;;;;;;;;;;;;21.92;66.10;99468.41;2038936;28;20625;-51
2022/06/08 02:10:24;;;;;;;;;;;;;;;21.94;66.08;99461.69;2034505;28;20340;-48
2022/06/08 02:11:32;;;;;;;;;;;;;;;21.92;66.68;99464.88;2034961;28;19914;-48
2022/06/08 02:12:34;;;;;;;;;;;;;;;21.92;66.93;99464.88;2037579;28;19910;-47
2022/06/08 02:13:44;;;;;;;;;;;;;;;21.91;66.97;99466.88;2047101;28;20230;-49
2022/06/08 02:14:47;;;;;;;;;;;;;;;21.92;66.36;99456.63;2030554;29;19915;-47
2022/06/08 02:15:51;;;;;;;;;;;;;;;21.92;66.51;99465.66;2042121;28;19948;-49
2022/06/08 02:16:53;;;;;;;;;;;;;;;21.94;66.31;99469.97;2035629;28;19911;-48
2022/06/08 02:17:55;;;;;;;;;;;;;;;21.92;66.06;99468.41;2036750;28;19954;-49
2022/06/08 02:18:58;;;;;;;;;;;;;;;21.92;66.40;99473.16;2036393;28;20012;-47
2022/06/08 02:20:20;;;;;;;;;;;;;;;21.92;66.09;99473.16;2035234;28;20827;-49
2022/06/08 02:21:28;;;;;;;;;;;;;;;21.90;66.60;99462.56;2039076;28;19920;-48
2022/06/08 02:22:36;;;;;;;;;;;;;;;21.91;65.72;99464.13;2036644;28;19914;-49
2022/06/08 02:23:57;;;;;;;;;;;;;;;21.90;66.24;99468.06;2032992;28;19903;-48
2022/06/08 02:25:12;;;;;;;;;;;;;;;21.88;65.66;99459.50;2030117;28;19915;-47
2022/06/08 02:26:18;;;;;;;;;;;;;;;21.88;65.44;99461.50;2036424;28;20300;-48
2022/06/08 02:27:27;;;;;;;;;;;;;;;21.88;65.65;99462.25;2039898;28;19918;-50
2022/06/08 02:28:34;;;;;;;;;;;;;;;21.88;65.70;99458.72;2035220;28;20176;-50
2022/06/08 02:29:37;;;;;;;;;;;;;;;21.89;65.74;99465.75;2036368;28;19914;-47
2022/06/08 02:30:41;;;;;;;;;;;;;;;21.88;65.82;99464.25;2031337;28;19981;-48
2022/06/08 02:31:46;;;;;;;;;;;;;;;21.88;65.49;99458.72;2034165;28;20268;-47
2022/06/08 02:34:31;;;;;;;;;;;;;;;21.85;65.45;99457.63;2030686;29;20452;-50
2022/06/08 02:35:34;;;;;;;;;;;;;;;21.85;65.73;99454.09;2029226;29;20354;-48
2022/06/08 02:36:49;;;;;;;;;;;;;;;21.87;65.50;99455.19;2029410;28;19906;-47
2022/06/08 02:37:51;;;;;;;;;;;;;;;21.87;65.52;99457.19;2037645;28;20227;-49
2022/06/08 02:38:54;;;;;;;;;;;;;;;21.87;65.61;99451.66;2029431;29;19915;-48
2022/06/08 02:40:10;;;;;;;;;;;;;;;21.87;65.44;99452.44;2031414;28;19922;-46
2022/06/08 02:41:12;;;;;;;;;;;;;;;21.87;66.11;99457.97;2034571;28;20320;-47
2022/06/08 02:42:18;;;;;;;;;;;;;;;21.86;65.77;99461.94;2037724;28;20594;-51
2022/06/08 02:43:22;;;;;;;;;;;;;;;21.87;66.06;99460.72;2033308;28;19918;-50
2022/06/08 02:44:25;;;;;;;;;;;;;;;21.87;66.04;99463.47;2033186;28;19955;-49
2022/06/08 02:45:35;;;;;;;;;;;;;;;21.86;66.03;99461.16;2032533;29;20029;-47
2022/06/08 02:46:50;;;;;;;;;;;;;;;21.86;66.43;99466.66;2025042;28;20270;-48
2022/06/08 02:47:53;;;;;;;;;;;;;;;21.85;66.60;99460.38;2038353;28;20209;-48
2022/06/08 02:48:53;;;;;;;;;;;;;;;21.84;65.71;99458.84;2038046;28;20247;-49
2022/06/08 02:49:53;;;;;;;;;;;;;;;21.85;65.38;99459.59;2041392;28;20005;-48
2022/06/08 02:50:55;;;;;;;;;;;;;;;21.83;65.22;99462.06;2042394;28;19914;-49
2022/06/08 02:51:58;;;;;;;;;;;;;;;21.84;65.21;99458.84;2036659;28;20359;-49
2022/06/08 02:53:16;;;;;;;;;;;;;;;21.84;65.30;99463.56;2034229;28;20008;-47
2022/06/08 02:54:21;;;;;;;;;;;;;;;21.84;65.78;99467.09;2030488;29;20232;-47
2022/06/08 02:55:33;;;;;;;;;;;;;;;21.84;65.54;99464.34;2036690;28;20407;-49
2022/06/08 02:56:39;;;;;;;;;;;;;;;21.83;65.19;99462.06;2033396;28;19922;-48
2022/06/08 02:57:45;;;;;;;;;;;;;;;21.82;64.96;99461.28;2027018;29;20355;-47
2022/06/08 02:59:12;;;;;;;;;;;;;;;21.82;65.06;99450.25;2030095;29;19915;-47
2022/06/08 03:00:15;;;;;;;;;;;;;;;21.83;64.99;99449.03;2032952;28;20432;-46
2022/06/08 03:01:19;;;;;;;;;;;;;;;21.82;65.05;99444.75;2035703;28;19977;-47
2022/06/08 03:02:49;;;;;;;;;;;;;;;21.83;65.54;99440.00;2037733;28;20023;-49
2022/06/08 03:03:56;;;;;;;;;;;;;;;21.81;65.72;99443.19;2013906;29;20227;-48
2022/06/08 03:05:22;;;;;;;;;;;;;;;21.82;65.50;99447.50;2021861;29;20245;-48
2022/06/08 03:06:25;;;;;;;;;;;;;;;21.81;66.10;99440.44;2007970;29;19956;-47
2022/06/08 03:07:29;;;;;;;;;;;;;;;21.81;66.03;99443.19;2035094;28;19953;-47
2022/06/08 03:08:35;;;;;;;;;;;;;;;21.81;65.47;99442.44;2020936;29;19915;-49
2022/06/08 03:09:36;;;;;;;;;;;;;;;21.81;65.58;99436.91;2021033;29;19927;-48
2022/06/08 03:10:40;;;;;;;;;;;;;;;21.80;65.48;99432.63;2029565;29;19918;-49
2022/06/08 03:11:43;;;;;;;;;;;;;;;21.80;65.42;99435.38;2036956;28;19945;-47
2022/06/08 03:12:48;;;;;;;;;;;;;;;21.81;65.46;99428.66;2031577;28;19919;-48
2022/06/08 03:13:51;;;;;;;;;;;;;;;21.80;65.61;99424.34;2028353;28;20584;-49
2022/06/08 03:14:51;;;;;;;;;;;;;;;21.80;65.62;99429.84;2029575;29;19910;-50
2022/06/08 03:15:57;;;;;;;;;;;;;;;21.78;65.35;99437.81;2031740;28;19914;-50
2022/06/08 03:17:02;;;;;;;;;;;;;;;21.79;65.94;99434.59;2036515;28;19910;-48
2022/06/08 03:18:02;;;;;;;;;;;;;;;21.79;65.92;99431.84;2036862;28;19969;-49
2022/06/08 03:19:03;;;;;;;;;;;;;;;21.79;66.07;99437.34;2035607;28;19926;-48
2022/06/08 03:20:06;;;;;;;;;;;;;;;21.78;66.15;99427.53;2040049;28;20038;-48
2022/06/08 03:21:06;;;;;;;;;;;;;;;21.79;66.50;99433.81;2033632;28;20532;-48
2022/06/08 03:22:06;;;;;;;;;;;;;;;21.80;66.36;99435.38;2036903;28;20345;-47
2022/06/08 03:23:07;;;;;;;;;;;;;;;21.79;66.42;99433.81;2038193;28;20285;-50
2022/06/08 03:24:07;;;;;;;;;;;;;;;21.78;66.30;99438.56;2035369;28;19922;-51
2022/06/08 03:25:08;;;;;;;;;;;;;;;21.77;66.26;99439.81;2035798;28;19907;-49
2022/06/08 03:26:08;;;;;;;;;;;;;;;21.78;66.22;99444.06;2035810;28;19921;-50
2022/06/08 03:27:09;;;;;;;;;;;;;;;21.78;66.23;99449.59;2035019;28;19921;-48
2022/06/08 03:28:12;;;;;;;;;;;;;;;21.79;65.89;99444.84;2037956;28;19933;-48
2022/06/08 03:29:12;;;;;;;;;;;;;;;21.78;66.16;99446.09;2032567;28;20045;-51
2022/06/08 03:30:13;;;;;;;;;;;;;;;21.79;66.14;99444.84;2028698;29;19962;-47
2022/06/08 03:31:13;;;;;;;;;;;;;;;21.78;66.29;99448.84;2028200;29;20336;-46
2022/06/08 03:32:13;;;;;;;;;;;;;;;21.78;66.28;99452.34;2036165;28;20017;-51
2022/06/08 03:33:14;;;;;;;;;;;;;;;21.76;66.24;99438.25;2039127;28;20424;-47
2022/06/08 03:34:14;;;;;;;;;;;;;;;21.79;66.36;99445.63;2036705;28;19954;-49
2022/06/08 03:35:15;;;;;;;;;;;;;;;21.77;66.13;99437.03;2037230;28;20351;-51
2022/06/08 03:36:15;;;;;;;;;;;;;;;21.78;66.42;99435.06;2039658;28;19906;-50
2022/06/08 03:37:16;;;;;;;;;;;;;;;21.77;66.48;99436.28;2032447;28;19915;-48
2022/06/08 03:38:16;;;;;;;;;;;;;;;21.76;66.15;99441.00;2032500;28;19982;-48
2022/06/08 03:39:17;;;;;;;;;;;;;;;21.76;65.98;99437.47;2029830;29;19915;-48
2022/06/08 03:40:18;;;;;;;;;;;;;;;21.72;65.43;99440.38;2024647;29;20013;-47
2022/06/08 03:41:18;;;;;;;;;;;;;;;21.74;65.33;99435.16;2024051;29;19923;-47
2022/06/08 03:42:18;;;;;;;;;;;;;;;21.74;65.40;99431.63;2021136;29;20754;-48
2022/06/08 03:43:19;;;;;;;;;;;;;;;21.75;65.71;99435.94;2033280;29;20381;-47
2022/06/08 03:44:19;;;;;;;;;;;;;;;21.75;65.46;99433.97;2037503;28;19914;-48
2022/06/08 03:45:20;;;;;;;;;;;;;;;21.73;65.57;99433.63;2032318;28;19910;-48
2022/06/08 03:46:20;;;;;;;;;;;;;;;21.74;65.57;99437.91;2030612;28;19960;-48
2022/06/08 03:47:22;;;;;;;;;;;;;;;21.71;65.41;99436.06;2033259;28;19914;-49
2022/06/08 03:48:23;;;;;;;;;;;;;;;21.72;65.41;99436.84;2038357;28;20495;-47
2022/06/08 03:49:24;;;;;;;;;;;;;;;21.71;65.07;99433.31;2035891;28;19969;-49
2022/06/08 03:50:27;;;;;;;;;;;;;;;21.70;65.09;99437.28;2037539;28;20472;-47
2022/06/08 03:51:27;;;;;;;;;;;;;;;21.71;65.21;99443.56;2026438;29;19950;-48
2022/06/08 03:52:29;;;;;;;;;;;;;;;21.70;64.90;99440.03;2030009;29;19915;-48
2022/06/08 03:53:37;;;;;;;;;;;;;;;21.72;65.01;99439.59;2029801;29;19911;-50
2022/06/08 03:54:40;;;;;;;;;;;;;;;21.71;65.13;99438.06;2030084;29;19958;-48
2022/06/08 03:55:40;;;;;;;;;;;;;;;21.71;64.92;99438.81;2030118;29;19914;-47
2022/06/08 03:56:42;;;;;;;;;;;;;;;21.70;64.81;99434.53;2029558;29;19914;-50
2022/06/08 03:57:45;;;;;;;;;;;;;;;21.69;64.76;99430.22;2028934;28;19965;-47
2022/06/08 03:58:45;;;;;;;;;;;;;;;21.69;65.16;99437.72;2030343;29;19950;-50
2022/06/08 03:59:47;;;;;;;;;;;;;;;21.69;65.24;99435.75;2029702;28;19922;-49
2022/06/08 04:00:48;;;;;;;;;;;;;;;21.70;65.06;99431.78;2030116;29;19926;-46
2022/06/08 04:01:49;;;;;;;;;;;;;;;21.69;65.24;99441.25;2037876;28;19924;-50
2022/06/08 04:02:49;;;;;;;;;;;;;;;21.69;65.29;99438.50;2034038;28;19917;-47
2022/06/08 04:03:52;;;;;;;;;;;;;;;21.70;65.58;99434.53;2032093;29;19907;-48
2022/06/08 04:04:52;;;;;;;;;;;;;;;21.71;65.67;99432.53;2030550;29;19970;-49
2022/06/08 04:05:52;;;;;;;;;;;;;;;21.70;65.50;99431.78;2031148;28;20735;-47
2022/06/08 04:06:53;;;;;;;;;;;;;;;21.71;65.86;99429.78;2039578;28;20005;-50
2022/06/08 04:07:54;;;;;;;;;;;;;;;21.71;65.86;99436.06;2030850;28;19919;-50
2022/06/08 04:08:55;;;;;;;;;;;;;;;21.70;65.99;99431.78;2029878;28;20504;-48
2022/06/08 04:09:55;;;;;;;;;;;;;;;21.70;65.47;99431.78;2040015;28;19915;-47
2022/06/08 04:10:56;;;;;;;;;;;;;;;21.70;65.35;99426.25;2032195;28;19922;-49
2022/06/08 04:11:56;;;;;;;;;;;;;;;21.69;65.90;99427.47;2032277;29;19910;-47
2022/06/08 04:12:56;;;;;;;;;;;;;;;21.69;65.43;99429.44;2034691;28;20015;-47
2022/06/08 04:13:58;;;;;;;;;;;;;;;21.68;65.53;99423.16;2039909;28;19941;-49
2022/06/08 04:14:58;;;;;;;;;;;;;;;21.69;65.45;99430.22;2031000;29;19914;-47
2022/06/08 04:16:01;;;;;;;;;;;;;;;21.66;65.75;99433.88;2029324;28;19961;-47
2022/06/08 04:17:02;;;;;;;;;;;;;;;21.69;65.36;99432.97;2029026;29;19989;-48
2022/06/08 04:18:03;;;;;;;;;;;;;;;21.69;65.61;99434.97;2037367;28;19940;-48
2022/06/08 04:19:03;;;;;;;;;;;;;;;21.69;65.59;99432.97;2036662;28;19939;-50
2022/06/08 04:20:04;;;;;;;;;;;;;;;21.69;65.94;99430.22;2036658;28;19914;-47
2022/06/08 04:21:09;;;;;;;;;;;;;;;21.69;66.06;99435.75;2036922;28;19953;-48
2022/06/08 04:22:10;;;;;;;;;;;;;;;21.69;65.41;99434.97;2038870;28;19918;-49
2022/06/08 04:23:11;;;;;;;;;;;;;;;21.67;65.20;99435.44;2029889;29;19906;-50
2022/06/08 04:24:13;;;;;;;;;;;;;;;21.65;65.42;99432.34;2033920;28;19997;-48
2022/06/08 04:25:14;;;;;;;;;;;;;;;21.65;65.52;99434.31;2036889;28;19938;-50
2022/06/08 04:26:15;;;;;;;;;;;;;;;21.64;65.17;99428.03;2037973;28;19911;-47
2022/06/08 04:27:15;;;;;;;;;;;;;;;21.64;65.12;99433.56;2035953;28;19911;-47
2022/06/08 04:28:17;;;;;;;;;;;;;;;21.62;65.13;99433.25;2029633;29;19915;-48
2022/06/08 04:29:17;;;;;;;;;;;;;;;21.62;65.26;99430.50;2027367;29;19925;-47
2022/06/08 04:30:18;;;;;;;;;;;;;;;21.62;64.90;99430.50;2037873;28;19914;-46
2022/06/08 04:31:18;;;;;;;;;;;;;;;21.62;65.26;99430.50;2028235;29;19910;-47
2022/06/08 04:32:18;;;;;;;;;;;;;;;21.62;64.85;99429.72;2028371;29;19994;-48
2022/06/08 04:33:19;;;;;;;;;;;;;;;21.61;64.95;99428.94;2039443;28;19921;-49
2022/06/08 04:34:19;;;;;;;;;;;;;;;21.61;64.83;99430.94;2034924;28;20254;-47
2022/06/08 04:35:20;;;;;;;;;;;;;;;21.62;64.84;99433.25;2036513;28;19918;-50
2022/06/08 04:36:20;;;;;;;;;;;;;;;21.62;64.62;99443.50;2038941;28;19910;-47
2022/06/08 04:37:21;;;;;;;;;;;;;;;21.61;65.03;99434.44;2034225;28;19914;-48
2022/06/08 04:38:21;;;;;;;;;;;;;;;21.60;65.28;99432.91;2031769;28;19985;-48
2022/06/08 04:39:22;;;;;;;;;;;;;;;21.61;65.38;99433.69;2038989;29;19913;-47
2022/06/08 04:40:22;;;;;;;;;;;;;;;21.62;65.54;99432.47;2032742;28;19914;-48
2022/06/08 04:41:22;;;;;;;;;;;;;;;21.60;64.95;99432.91;2036210;28;19965;-50
2022/06/08 04:42:23;;;;;;;;;;;;;;;21.60;65.13;99432.13;2029094;28;19962;-47
2022/06/08 04:43:23;;;;;;;;;;;;;;;21.61;64.90;99434.44;2033918;28;19923;-48
2022/06/08 04:44:23;;;;;;;;;;;;;;;21.61;65.31;99425.41;2035667;28;20337;-48
2022/06/08 04:45:24;;;;;;;;;;;;;;;21.61;65.25;99434.44;2030114;29;19910;-46
2022/06/08 04:46:25;;;;;;;;;;;;;;;21.61;65.02;99434.44;2029048;29;19966;-49
2022/06/08 04:47:25;;;;;;;;;;;;;;;21.60;64.99;99432.91;2033266;28;19914;-46
2022/06/08 04:48:26;;;;;;;;;;;;;;;21.61;64.85;99437.22;2031736;28;19911;-49
2022/06/08 04:49:26;;;;;;;;;;;;;;;21.61;65.02;99434.44;2033304;28;19903;-48
2022/06/08 04:50:27;;;;;;;;;;;;;;;21.61;64.75;99433.69;2045899;28;19980;-47
2022/06/08 04:51:28;;;;;;;;;;;;;;;21.59;64.92;99428.59;2038155;28;20413;-50
2022/06/08 04:52:28;;;;;;;;;;;;;;;21.59;65.49;99427.84;2028858;29;19922;-50
2022/06/08 04:53:28;;;;;;;;;;;;;;;21.60;65.59;99432.13;2028763;29;19915;-50
2022/06/08 04:54:29;;;;;;;;;;;;;;;21.60;64.93;99430.16;2036304;28;19919;-48
2022/06/08 04:55:29;;;;;;;;;;;;;;;21.61;65.43;99420.69;2033251;29;20001;-49
2022/06/08 04:56:29;;;;;;;;;;;;;;;21.61;65.36;99420.69;2028403;29;19921;-49
2022/06/08 04:57:33;;;;;;;;;;;;;;;21.60;65.68;99423.88;2037799;28;20028;-48
2022/06/08 04:58:34;;;;;;;;;;;;;;;21.61;65.59;99430.94;2029926;29;20372;-49
2022/06/08 04:59:34;;;;;;;;;;;;;;;21.59;65.35;99425.84;2028189;28;19969;-49
2022/06/08 05:00:35;;;;;;;;;;;;;;;21.59;65.63;99430.59;2030539;29;19933;-47
2022/06/08 05:01:35;;;;;;;;;;;;;;;21.59;65.37;99427.84;2027784;28;20206;-48
2022/06/08 05:02:48;;;;;;;;;;;;;;;21.60;65.59;99427.41;2030562;29;19919;-48
2022/06/08 05:03:49;;;;;;;;;;;;;;;21.60;65.54;99427.41;2029521;29;19911;-51
2022/06/08 05:04:49;;;;;;;;;;;;;;;21.61;66.28;99428.94;2027721;29;20018;-46
2022/06/08 05:05:49;;;;;;;;;;;;;;;21.61;65.85;99436.44;2029523;29;20337;-47
2022/06/08 05:06:49;;;;;;;;;;;;;;;21.60;65.97;99430.16;2037109;28;19902;-49
2022/06/08 05:07:50;;;;;;;;;;;;;;;21.61;66.23;99428.16;2031911;28;19965;-51
2022/06/08 05:08:51;;;;;;;;;;;;;;;21.59;66.20;99430.59;2030519;29;19909;-48
2022/06/08 05:09:51;;;;;;;;;;;;;;;21.58;66.27;99429.81;2028539;29;19910;-46
2022/06/08 05:10:53;;;;;;;;;;;;;;;21.58;66.02;99435.31;2027713;29;19907;-48
2022/06/08 05:11:53;;;;;;;;;;;;;;;21.58;66.04;99432.56;2037703;28;19925;-48
2022/06/08 05:12:53;;;;;;;;;;;;;;;21.58;66.18;99435.31;2037042;28;19911;-47
2022/06/08 05:13:54;;;;;;;;;;;;;;;21.59;65.99;99433.34;2034711;28;19937;-48
2022/06/08 05:14:54;;;;;;;;;;;;;;;21.59;65.90;99442.38;2029679;29;19965;-50
2022/06/08 05:15:55;;;;;;;;;;;;;;;21.60;65.94;99437.66;2030241;29;20233;-47
2022/06/08 05:16:55;;;;;;;;;;;;;;;21.58;65.93;99435.31;2031629;29;19937;-49
2022/06/08 05:17:56;;;;;;;;;;;;;;;21.58;65.66;99434.56;2029212;29;19911;-48
2022/06/08 05:18:56;;;;;;;;;;;;;;;21.59;65.91;99436.88;2029124;29;19994;-50
2022/06/08 05:19:56;;;;;;;;;;;;;;;21.57;66.02;99431.06;2030263;29;19910;-48
2022/06/08 05:20:57;;;;;;;;;;;;;;;21.56;65.44;99435.03;2030421;28;19930;-47
2022/06/08 05:21:57;;;;;;;;;;;;;;;21.57;65.79;99433.81;2028401;29;19917;-47
2022/06/08 05:22:58;;;;;;;;;;;;;;;21.58;65.67;99438.09;2029169;29;20329;-47
2022/06/08 05:23:58;;;;;;;;;;;;;;;21.58;65.48;99431.81;2032172;28;19965;-55
2022/06/08 05:25:00;;;;;;;;;;;;;;;21.57;65.59;99435.78;2037911;28;20265;-47
2022/06/08 05:26:02;;;;;;;;;;;;;;;21.57;65.66;99441.31;2029058;29;19911;-51
2022/06/08 05:27:02;;;;;;;;;;;;;;;21.54;65.69;99445.69;2030545;28;20540;-49
2022/06/08 05:28:03;;;;;;;;;;;;;;;21.54;66.03;99440.19;2040167;28;20481;-47
2022/06/08 05:29:03;;;;;;;;;;;;;;;21.56;65.50;99442.50;2027957;29;19911;-48
2022/06/08 05:30:04;;;;;;;;;;;;;;;21.56;65.16;99446.03;2025039;29;20292;-50
2022/06/08 05:31:05;;;;;;;;;;;;;;;21.56;65.53;99442.50;2030289;29;20507;-50
2022/06/08 05:32:05;;;;;;;;;;;;;;;21.56;65.27;99442.50;2035413;28;19917;-49
2022/06/08 05:33:06;;;;;;;;;;;;;;;21.55;65.69;99441.75;2038623;28;19918;-50